createdAt,value
2022-10-17T00:01:07.912Z,24.55
2022-10-17T00:03:37.520Z,27.55
2022-10-17T00:06:07.493Z,27.27
2022-10-17T00:08:34.933Z,25.40
2022-10-17T00:11:06.980Z,26.50
2022-10-17T00:13:34.656Z,26.30
2022-10-17T00:16:01.931Z,26.05
2022-10-17T00:18:32.235Z,28.42
2022-10-17T00:21:03.851Z,25.35
2022-10-17T00:26:02.064Z,25.15
2022-10-17T00:28:29.682Z,26.45
2022-10-17T00:31:02.172Z,26.00
2022-10-17T00:33:39.396Z,25.67
2022-10-17T00:36:20.017Z,26.27
2022-10-17T00:39:09.973Z,28.20
2022-10-17T00:41:37.380Z,28.25
2022-10-17T00:44:30.325Z,28.25
2022-10-17T00:47:08.344Z,27.15
2022-10-17T00:49:37.235Z,26.85
2022-10-17T00:52:31.715Z,27.75
2022-10-17T00:55:06.841Z,27.38
2022-10-17T00:57:44.259Z,28.15
2022-10-17T01:00:12.883Z,29.02
2022-10-17T01:02:42.330Z,28.67
2022-10-17T01:05:20.124Z,27.15
2022-10-17T01:08:06.570Z,29.52
2022-10-17T01:11:42.473Z,28.63
2022-10-17T01:23:23.091Z,28.45
2022-10-17T02:13:58.545Z,27.90
2022-10-17T03:55:57.817Z,31.40
2022-10-17T04:02:12.365Z,27.80
2022-10-17T04:04:41.691Z,26.35
2022-10-17T04:07:08.944Z,25.13
2022-10-17T04:09:39.214Z,25.25
2022-10-17T04:12:06.491Z,25.10
2022-10-17T04:14:33.847Z,24.13
2022-10-17T04:17:01.123Z,25.27
2022-10-17T04:19:28.411Z,25.83
2022-10-17T04:21:55.715Z,26.27
2022-10-17T04:24:23.048Z,25.52
2022-10-17T04:26:51.254Z,25.75
2022-10-17T04:29:18.647Z,24.95
2022-10-17T04:31:46.041Z,25.75
2022-10-17T04:34:14.502Z,25.10
2022-10-17T04:36:41.880Z,25.92
2022-10-17T04:39:09.158Z,24.83
2022-10-17T04:41:38.648Z,25.40
2022-10-17T04:44:06.233Z,25.75
2022-10-17T04:46:35.299Z,26.38
2022-10-17T04:49:03.084Z,26.77
2022-10-17T04:51:32.695Z,27.50
2022-10-17T04:54:00.036Z,28.02
2022-10-17T04:56:27.387Z,27.95
2022-10-17T04:58:54.641Z,29.55
2022-10-17T05:01:23.473Z,29.50
2022-10-17T05:03:51.428Z,28.63
2022-10-17T05:06:24.556Z,28.17
2022-10-17T05:08:51.871Z,28.67
2022-10-17T05:11:29.733Z,28.10
2022-10-17T05:14:00.227Z,28.77
2022-10-17T05:16:30.884Z,30.38
2022-10-17T05:18:59.213Z,30.07
2022-10-17T05:21:30.486Z,28.70
2022-10-17T05:23:57.843Z,28.15
2022-10-17T05:26:25.796Z,29.25
2022-10-17T05:28:54.717Z,28.58
2022-10-17T05:31:22.102Z,28.52
2022-10-17T05:33:51.673Z,27.75
2022-10-17T05:36:21.208Z,28.15
2022-10-17T05:38:59.178Z,26.80
2022-10-17T05:41:26.460Z,27.48
2022-10-17T05:43:53.751Z,27.52
2022-10-17T05:46:21.134Z,28.60
2022-10-17T05:48:48.438Z,26.35
2022-10-17T05:51:16.032Z,26.52
2022-10-17T05:53:43.352Z,26.05
2022-10-17T05:56:12.773Z,26.77
2022-10-17T05:58:53.160Z,23.67
2022-10-17T06:01:22.480Z,22.73
2022-10-17T06:03:51.919Z,21.67
2022-10-17T06:06:19.718Z,21.13
2022-10-17T06:08:49.371Z,21.90
2022-10-17T06:11:16.858Z,21.98
2022-10-17T06:13:46.368Z,23.08
2022-10-17T06:16:13.698Z,22.10
2022-10-17T06:18:43.381Z,23.02
2022-10-17T06:21:12.305Z,20.92
2022-10-17T06:23:39.691Z,21.08
2022-10-17T06:26:10.298Z,20.15
2022-10-17T06:28:37.683Z,18.90
2022-10-17T06:31:15.288Z,18.88
2022-10-17T06:33:42.830Z,18.40
2022-10-17T06:36:12.609Z,18.90
2022-10-17T06:38:40.289Z,19.65
2022-10-17T06:41:19.044Z,19.40
2022-10-17T06:43:47.611Z,19.25
2022-10-17T06:46:18.953Z,18.73
2022-10-17T06:48:48.697Z,18.65
2022-10-17T06:51:15.950Z,18.48
2022-10-17T06:53:43.207Z,19.50
2022-10-17T06:56:10.776Z,19.75
2022-10-17T06:58:41.021Z,20.95
2022-10-17T07:01:11.535Z,22.85
2022-10-17T07:03:40.896Z,22.60
2022-10-17T07:06:08.236Z,21.45
2022-10-17T07:08:35.580Z,22.80
2022-10-17T07:11:15.919Z,23.08
2022-10-17T07:13:43.766Z,23.55
2022-10-17T07:16:11.997Z,23.80
2022-10-17T07:18:41.948Z,23.60
2022-10-17T07:21:09.627Z,24.38
2022-10-17T07:23:37.794Z,25.92
2022-10-17T07:26:08.346Z,25.92
2022-10-17T07:28:37.301Z,25.85
2022-10-17T07:31:10.472Z,26.50
2022-10-17T07:33:38.334Z,26.27
2022-10-17T07:36:06.280Z,26.83
2022-10-17T07:38:34.299Z,27.13
2022-10-17T07:41:03.828Z,24.70
2022-10-17T07:43:31.659Z,25.30
2022-10-17T07:46:00.484Z,26.02
2022-10-17T07:48:29.958Z,26.30
2022-10-17T07:50:57.274Z,25.60
2022-10-17T07:53:24.571Z,25.27
2022-10-17T07:55:52.154Z,26.00
2022-10-17T07:58:19.726Z,26.40
2022-10-17T08:00:51.048Z,26.95
2022-10-17T08:03:20.853Z,27.95
2022-10-17T08:05:48.155Z,29.17
2022-10-17T08:08:17.803Z,27.67
2022-10-17T08:10:45.155Z,28.00
2022-10-17T08:13:12.437Z,28.15
2022-10-17T08:15:39.674Z,26.33
2022-10-17T08:18:09.415Z,27.90
2022-10-17T08:20:37.328Z,26.58
2022-10-17T08:23:07.614Z,27.60
2022-10-17T08:25:38.934Z,28.63
2022-10-17T08:30:39.425Z,28.52
2022-10-17T08:33:08.932Z,29.08
2022-10-17T08:35:36.320Z,27.90
2022-10-17T08:38:05.708Z,27.40
2022-10-17T08:40:36.451Z,28.25
2022-10-17T08:43:30.336Z,26.50
2022-10-17T08:46:05.318Z,27.48
2022-10-17T08:48:37.087Z,27.15
2022-10-17T08:51:30.478Z,29.98
2022-10-17T08:54:21.059Z,28.05
2022-10-17T08:56:56.635Z,28.38
2022-10-17T08:59:29.777Z,29.55
2022-10-17T09:02:37.878Z,27.83
2022-10-17T09:05:14.219Z,26.35
2022-10-17T09:07:50.151Z,28.58
2022-10-17T09:10:48.336Z,28.00
2022-10-17T09:13:23.237Z,27.98
2022-10-17T09:15:53.537Z,28.30
2022-10-17T09:18:35.520Z,30.55
2022-10-17T09:21:26.131Z,29.25
2022-10-17T09:24:09.452Z,30.08
2022-10-17T09:26:40.421Z,29.63
2022-10-17T09:29:18.759Z,30.40
2022-10-17T09:31:58.553Z,30.40
2022-10-17T09:34:28.480Z,32.13
2022-10-17T09:37:02.138Z,30.67
2022-10-17T09:39:33.137Z,30.70
2022-10-17T09:42:02.113Z,28.27
2022-10-17T09:44:50.298Z,28.45
2022-10-17T09:47:32.030Z,30.08
2022-10-17T09:52:35.741Z,27.50
2022-10-17T09:55:23.244Z,30.35
2022-10-17T09:57:57.955Z,29.83
2022-10-17T10:00:46.989Z,30.77
2022-10-17T10:03:24.609Z,29.30
2022-10-17T10:06:16.061Z,29.67
2022-10-17T10:09:05.091Z,29.50
2022-10-17T10:11:56.213Z,28.77
2022-10-17T10:14:37.540Z,29.55
2022-10-17T10:17:25.690Z,28.35
2022-10-17T10:19:53.695Z,27.50
2022-10-17T10:22:25.224Z,26.75
2022-10-17T10:27:46.559Z,26.70
2022-10-17T10:30:25.573Z,26.33
2022-10-17T10:32:53.240Z,26.88
2022-10-17T10:35:32.223Z,27.10
2022-10-17T10:38:08.066Z,26.95
2022-10-17T10:40:37.393Z,53.28
2022-10-17T10:43:06.397Z,33.63
2022-10-17T10:45:47.634Z,28.70
2022-10-17T10:48:26.574Z,24.65
2022-10-17T10:51:15.932Z,27.17
2022-10-17T10:54:01.847Z,26.48
2022-10-17T10:56:53.393Z,26.67
2022-10-17T11:02:41.607Z,25.50
2022-10-17T11:05:25.021Z,26.70
2022-10-17T11:08:47.848Z,26.00
2022-10-17T11:11:39.148Z,25.60
2022-10-17T11:14:18.543Z,25.33
2022-10-17T11:17:23.063Z,25.60
2022-10-17T11:20:04.045Z,27.88
2022-10-17T11:22:52.652Z,23.90
2022-10-17T11:25:42.258Z,26.90
2022-10-17T11:28:18.402Z,24.85
2022-10-17T11:31:08.016Z,23.85
2022-10-17T11:34:01.520Z,25.13
2022-10-17T11:36:45.988Z,24.27
2022-10-17T11:39:56.263Z,24.85
2022-10-17T11:42:38.438Z,24.58
2022-10-17T11:45:22.380Z,24.35
2022-10-17T11:48:00.906Z,23.70
2022-10-17T11:53:24.898Z,23.90
2022-10-17T11:55:54.606Z,24.20
2022-10-17T11:58:41.782Z,23.92
2022-10-17T12:01:23.684Z,22.98
2022-10-17T12:04:28.642Z,22.17
2022-10-17T12:07:16.135Z,21.80
2022-10-17T12:09:55.285Z,22.42
2022-10-17T12:12:34.530Z,22.52
2022-10-17T12:15:13.624Z,23.27
2022-10-17T12:18:04.010Z,23.13
2022-10-17T12:20:39.012Z,23.65
2022-10-17T12:23:14.250Z,22.73
2022-10-17T12:26:04.870Z,22.00
2022-10-17T12:28:39.313Z,21.85
2022-10-17T12:31:16.304Z,21.50
2022-10-17T12:33:46.371Z,21.85
2022-10-17T12:36:24.842Z,21.52
2022-10-17T12:39:14.825Z,21.23
2022-10-17T12:41:42.632Z,21.92
2022-10-17T12:44:15.717Z,20.63
2022-10-17T12:47:05.050Z,21.90
2022-10-17T12:49:48.131Z,22.08
2022-10-17T12:52:24.536Z,23.55
2022-10-17T12:55:13.218Z,21.08
2022-10-17T12:57:58.779Z,21.15
2022-10-17T13:00:35.180Z,20.50
2022-10-17T13:03:25.721Z,19.98
2022-10-17T13:06:02.126Z,20.30
2022-10-17T13:08:33.097Z,21.30
2022-10-17T13:11:01.556Z,21.83
2022-10-17T13:13:41.385Z,22.30
2022-10-17T13:16:09.125Z,20.65
2022-10-17T13:18:38.789Z,19.77
2022-10-17T13:21:15.144Z,22.50
2022-10-17T13:23:45.249Z,22.05
2022-10-17T13:26:24.985Z,21.70
2022-10-17T13:29:13.096Z,20.95
2022-10-17T13:31:43.456Z,21.45
2022-10-17T13:34:22.471Z,21.45
2022-10-17T13:37:01.765Z,21.73
2022-10-17T13:40:07.020Z,19.77
2022-10-17T13:42:30.048Z,21.50
2022-10-17T13:44:59.255Z,22.00
2022-10-17T13:47:37.701Z,22.13
2022-10-17T13:50:12.755Z,21.65
2022-10-17T13:52:48.956Z,21.20
2022-10-17T13:55:20.216Z,20.25
2022-10-17T13:57:48.377Z,21.55
2022-10-17T14:00:23.316Z,21.55
2022-10-17T14:02:50.623Z,21.02
2022-10-17T14:05:20.733Z,21.65
2022-10-17T14:08:13.352Z,22.48
2022-10-17T14:10:46.130Z,22.98
2022-10-17T14:13:25.593Z,23.10
2022-10-17T14:15:59.264Z,21.77
2022-10-17T14:18:36.439Z,20.80
2022-10-17T14:21:34.374Z,21.63
2022-10-17T14:24:23.680Z,20.92
2022-10-17T14:26:54.078Z,21.23
2022-10-17T14:29:31.191Z,22.38
2022-10-17T14:32:06.140Z,22.23
2022-10-17T14:34:36.795Z,21.30
2022-10-17T14:37:18.936Z,21.63
2022-10-17T14:39:50.877Z,20.42
2022-10-17T14:42:23.160Z,22.40
2022-10-17T14:44:55.492Z,22.80
2022-10-17T14:47:43.264Z,21.90
2022-10-17T14:50:11.321Z,22.42
2022-10-17T14:52:39.878Z,23.05
2022-10-17T14:55:34.892Z,23.58
2022-10-17T14:58:15.268Z,23.42
2022-10-17T15:00:42.595Z,21.65
2022-10-17T15:03:09.998Z,23.33
2022-10-17T15:05:39.415Z,22.70
2022-10-17T15:08:20.283Z,22.75
2022-10-17T15:10:51.072Z,19.92
2022-10-17T15:13:41.030Z,21.45
2022-10-17T15:16:35.222Z,22.00
2022-10-17T15:19:02.824Z,21.70
2022-10-17T15:21:47.175Z,21.88
2022-10-17T15:24:15.818Z,22.02
2022-10-17T15:26:45.595Z,22.63
2022-10-17T15:29:18.362Z,22.25
2022-10-17T15:31:48.764Z,21.42
2022-10-17T15:34:15.983Z,20.00
2022-10-17T15:36:51.796Z,21.42
2022-10-17T15:39:19.030Z,21.88
2022-10-17T15:41:48.711Z,20.58
2022-10-17T15:44:16.083Z,22.90
2022-10-17T15:46:46.084Z,22.15
2022-10-17T15:49:17.193Z,21.20
2022-10-17T15:51:48.514Z,22.10
2022-10-17T15:54:22.422Z,21.85
2022-10-17T15:56:54.694Z,20.75
2022-10-17T15:59:26.136Z,21.58
2022-10-17T16:04:24.316Z,21.70
2022-10-17T16:06:51.700Z,20.38
2022-10-17T16:09:18.954Z,22.08
2022-10-17T16:11:46.501Z,21.02
2022-10-17T16:14:18.363Z,21.95
2022-10-17T16:16:48.355Z,21.35
2022-10-17T16:19:20.914Z,22.52
2022-10-17T16:21:48.223Z,22.10
2022-10-17T16:24:17.817Z,22.00
2022-10-17T16:26:45.103Z,22.15
2022-10-17T16:29:14.711Z,22.08
2022-10-17T16:31:45.890Z,23.23
2022-10-17T16:34:16.438Z,21.77
2022-10-17T16:36:43.728Z,22.97
2022-10-17T16:39:11.356Z,24.90
2022-10-17T16:41:39.321Z,23.95
2022-10-17T16:44:14.584Z,23.30
2022-10-17T16:46:41.932Z,24.40
2022-10-17T16:49:10.677Z,22.77
2022-10-17T16:51:37.986Z,24.27
2022-10-17T16:54:08.144Z,25.23
2022-10-17T16:56:37.843Z,24.65
2022-10-17T16:59:07.763Z,24.50
2022-10-17T17:01:35.123Z,24.27
2022-10-17T17:04:04.620Z,24.30
2022-10-17T17:06:31.952Z,21.77
2022-10-17T17:08:59.558Z,23.02
2022-10-17T17:11:28.336Z,21.85
2022-10-17T17:13:59.192Z,23.65
2022-10-17T17:16:27.462Z,23.42
2022-10-17T17:18:57.383Z,22.92
2022-10-17T17:21:26.776Z,23.98
2022-10-17T17:23:58.389Z,23.42
2022-10-17T17:28:54.570Z,21.70
2022-10-17T17:31:26.996Z,21.58
2022-10-17T17:33:57.580Z,21.95
2022-10-17T17:36:27.403Z,22.30
2022-10-17T17:38:56.863Z,22.55
2022-10-17T17:41:27.012Z,22.33
2022-10-17T17:43:56.856Z,22.95
2022-10-17T17:46:25.071Z,24.15
2022-10-17T17:48:54.353Z,22.38
2022-10-17T17:51:28.506Z,22.00
2022-10-17T17:54:00.042Z,24.02
2022-10-17T17:56:29.803Z,24.38
2022-10-17T17:59:00.118Z,24.02
2022-10-17T18:01:31.998Z,23.55
2022-10-17T18:03:59.586Z,22.40
2022-10-17T18:06:30.491Z,24.17
2022-10-17T18:08:58.951Z,23.30
2022-10-17T18:11:29.447Z,25.27
2022-10-17T18:13:58.809Z,24.38
2022-10-17T18:16:27.439Z,24.38
2022-10-17T18:18:59.512Z,22.95
2022-10-17T18:21:32.376Z,24.00
2022-10-17T18:24:00.254Z,23.02
2022-10-17T18:26:32.436Z,23.45
2022-10-17T18:29:02.049Z,23.95
2022-10-17T18:31:32.409Z,22.77
2022-10-17T18:34:00.255Z,23.65
2022-10-17T18:36:29.843Z,22.15
2022-10-17T18:38:58.838Z,22.65
2022-10-17T18:41:27.031Z,23.80
2022-10-17T18:43:55.573Z,22.80
2022-10-17T18:46:26.576Z,22.73
2022-10-17T18:48:54.147Z,22.33
2022-10-17T18:51:25.607Z,22.13
2022-10-17T18:53:58.574Z,21.48
2022-10-17T18:56:29.256Z,27.08
2022-10-17T18:58:57.096Z,21.70
2022-10-17T19:01:28.195Z,21.63
2022-10-17T19:03:59.826Z,22.45
2022-10-17T19:09:03.544Z,21.30
2022-10-17T19:11:32.673Z,20.58
2022-10-17T19:14:03.443Z,20.15
2022-10-17T19:16:36.535Z,22.98
2022-10-17T19:19:07.901Z,21.50
2022-10-17T19:21:35.216Z,26.33
2022-10-17T19:24:05.480Z,26.10
2022-10-17T19:26:35.298Z,23.83
2022-10-17T19:29:03.803Z,22.50
2022-10-17T19:31:35.443Z,22.00
2022-10-17T19:36:34.107Z,19.42
2022-10-17T19:39:04.889Z,21.15
2022-10-17T19:41:32.628Z,20.70
2022-10-17T19:44:00.797Z,22.27
2022-10-17T19:46:29.676Z,22.73
2022-10-17T19:48:57.355Z,23.98
2022-10-17T19:51:25.741Z,21.35
2022-10-17T19:53:55.507Z,22.08
2022-10-17T19:56:26.573Z,20.75
2022-10-17T19:58:55.909Z,22.00
2022-10-17T20:01:29.194Z,21.70
2022-10-17T20:03:59.207Z,22.08
2022-10-17T20:06:40.338Z,23.20
2022-10-17T20:09:16.672Z,21.50
2022-10-17T20:11:58.405Z,20.52
2022-10-17T20:14:40.976Z,21.38
2022-10-17T20:17:11.246Z,20.63
2022-10-17T20:19:44.837Z,19.92
2022-10-17T20:22:19.034Z,21.83
2022-10-17T20:24:46.504Z,20.67
2022-10-17T20:27:21.391Z,20.10
2022-10-17T20:29:59.774Z,22.33
2022-10-17T20:32:40.093Z,21.23
2022-10-17T20:35:15.749Z,22.27
2022-10-17T20:40:35.716Z,20.63
2022-10-17T20:43:19.874Z,21.33
2022-10-17T20:46:15.779Z,20.08
2022-10-17T20:49:00.825Z,19.52
2022-10-17T20:51:31.555Z,19.48
2022-10-17T20:54:07.918Z,20.52
2022-10-17T20:56:43.263Z,20.05
2022-10-17T20:59:34.678Z,18.77
2022-10-17T21:02:14.553Z,19.75
2022-10-17T21:05:04.029Z,19.38
2022-10-17T21:07:39.960Z,20.33
2022-10-17T21:10:34.261Z,19.80
2022-10-17T21:13:09.282Z,19.23
2022-10-17T21:15:46.714Z,19.10
2022-10-17T21:18:25.751Z,19.90
2022-10-17T21:20:56.017Z,18.92
2022-10-17T21:23:29.899Z,20.38
2022-10-17T21:26:07.084Z,20.17
2022-10-17T21:31:38.283Z,19.30
2022-10-17T21:34:21.024Z,20.27
2022-10-17T21:37:03.363Z,19.25
2022-10-17T21:39:34.961Z,18.98
2022-10-17T21:47:22.247Z,19.25
2022-10-17T21:50:01.711Z,17.92
2022-10-17T21:52:31.802Z,17.90
2022-10-17T21:55:03.372Z,17.17
2022-10-17T21:57:33.273Z,16.55
2022-10-17T22:00:23.614Z,15.07
2022-10-17T22:03:06.986Z,14.73
2022-10-17T22:05:39.529Z,17.17
2022-10-17T22:08:43.451Z,16.75
2022-10-17T22:11:22.694Z,15.73
2022-10-17T22:13:58.155Z,16.25
2022-10-17T22:16:41.180Z,15.15
2022-10-17T22:19:09.274Z,14.82
2022-10-17T22:21:42.382Z,14.45
2022-10-17T22:24:14.775Z,13.55
2022-10-17T22:27:00.113Z,13.02
2022-10-17T22:29:42.256Z,13.43
2022-10-17T22:32:12.016Z,12.38
2022-10-17T22:34:39.662Z,12.48
2022-10-17T22:37:26.400Z,13.32
2022-10-17T22:39:59.453Z,13.30
2022-10-17T22:42:53.212Z,13.65
2022-10-17T22:45:31.329Z,13.57
2022-10-17T22:48:10.810Z,14.05
2022-10-17T22:50:45.154Z,14.48
2022-10-17T22:53:30.017Z,14.50
2022-10-17T22:56:09.532Z,14.02
2022-10-17T22:58:40.816Z,14.90
2022-10-17T23:01:29.682Z,14.18
2022-10-17T23:04:09.067Z,13.60
2022-10-17T23:06:39.553Z,16.10
2022-10-17T23:09:23.884Z,15.35
2022-10-17T23:12:01.841Z,15.13
2022-10-17T23:14:37.941Z,15.00
2022-10-17T23:17:06.563Z,14.82
2022-10-17T23:19:39.663Z,13.80
2022-10-17T23:22:22.101Z,12.90
2022-10-17T23:24:57.839Z,12.70
2022-10-17T23:27:32.861Z,11.93
2022-10-17T23:30:18.172Z,13.35
2022-10-17T23:32:49.697Z,13.02
2022-10-17T23:35:22.069Z,12.63
2022-10-17T23:37:58.557Z,13.15
2022-10-17T23:40:40.657Z,14.25
2022-10-17T23:43:22.538Z,14.05
2022-10-17T23:45:55.151Z,13.95
2022-10-17T23:48:22.982Z,13.52
2022-10-17T23:50:52.521Z,12.93
2022-10-17T23:53:33.630Z,13.07
2022-10-17T23:56:07.886Z,12.60
2022-10-17T23:58:47.623Z,12.30
